Time;durP1;ratioP1;P1;durP2;ratioP2;P2;SDS_P1;SDS_P2;PMS_P1;PMS_P2;Temp;Humidity;BMP_temperature;BMP_pressure;BME280_temperature;BME280_humidity;BME280_pressure;Samples;Min_cycle;Max_cycle;Signal;HPM_P1;HPM_P2
2023/08/20 00:00:27;;;;;;;12.10;10.82;;;;;;;;;;5034085;28;20053;-76
2023/08/20 00:02:59;;;;;;;14.73;11.98;;;;;;;;;;5034321;28;20033;-76
2023/08/20 00:05:25;;;;;;;18.30;11.70;;;;;;;;;;5034411;28;20033;-77
2023/08/20 00:07:51;;;;;;;14.98;10.75;;;;;;;;;;5033568;28;20076;-76
2023/08/20 00:10:17;;;;;;;11.77;10.52;;;;;;;;;;5034096;28;20030;-76
2023/08/20 00:12:43;;;;;;;11.88;10.55;;;;;;;;;;5033226;28;20481;-75
2023/08/20 00:15:10;;;;;;;14.73;11.98;;;;;;;;;;5036636;28;20491;-75
2023/08/20 00:17:37;;;;;;;12.20;10.85;;;;;;;;;;5036820;28;20239;-77
2023/08/20 00:20:12;;;;;;;12.48;11.05;;;;;;;;;;5039659;28;20073;-75
2023/08/20 00:22:39;;;;;;;14.82;11.27;;;;;;;;;;5047408;28;20021;-75
2023/08/20 00:25:05;;;;;;;16.40;12.15;;;;;;;;;;5046667;28;20033;-75
2023/08/20 00:27:31;;;;;;;13.20;11.10;;;;;;;;;;5044886;28;20061;-76
2023/08/20 00:29:57;;;;;;;14.30;10.77;;;;;;;;;;5039549;28;20055;-76
2023/08/20 00:32:23;;;;;;;13.25;9.98;;;;;;;;;;5038558;28;20025;-75
2023/08/20 00:34:49;;;;;;;13.68;11.20;;;;;;;;;;5040642;28;20048;-75
2023/08/20 00:37:15;;;;;;;13.75;10.10;;;;;;;;;;5036264;28;20032;-75
2023/08/20 00:39:41;;;;;;;11.93;10.73;;;;;;;;;;5035771;28;20034;-75
2023/08/20 00:42:08;;;;;;;11.90;10.43;;;;;;;;;;5037106;28;20052;-75
2023/08/20 00:44:34;;;;;;;17.13;10.88;;;;;;;;;;5032980;28;20030;-75
2023/08/20 00:47:01;;;;;;;11.07;10.07;;;;;;;;;;5028778;28;20034;-75
2023/08/20 00:49:27;;;;;;;11.30;10.05;;;;;;;;;;5032575;28;20030;-76
2023/08/20 00:51:54;;;;;;;12.00;10.35;;;;;;;;;;5024387;28;20385;-76
2023/08/20 00:54:20;;;;;;;10.68;9.68;;;;;;;;;;5032343;28;20041;-76
2023/08/20 00:56:48;;;;;;;17.13;10.63;;;;;;;;;;5032406;28;20051;-76
2023/08/20 00:59:14;;;;;;;10.60;9.63;;;;;;;;;;5032020;28;20045;-75
2023/08/20 01:01:40;;;;;;;11.18;9.98;;;;;;;;;;5032168;28;20021;-73
2023/08/20 01:04:06;;;;;;;14.82;10.68;;;;;;;;;;5032448;28;20025;-76
2023/08/20 01:06:48;;;;;;;15.98;11.10;;;;;;;;;;5032170;28;20025;-74
2023/08/20 01:09:14;;;;;;;14.23;10.15;;;;;;;;;;5031655;28;20044;-74
2023/08/20 01:11:43;;;;;;;13.25;10.90;;;;;;;;;;5032166;28;20022;-74
2023/08/20 01:14:16;;;;;;;12.00;10.68;;;;;;;;;;5032214;28;20435;-75
2023/08/20 01:16:42;;;;;;;12.75;10.60;;;;;;;;;;5023308;28;20071;-74
2023/08/20 01:19:11;;;;;;;13.43;10.38;;;;;;;;;;5031628;28;20031;-74
2023/08/20 01:21:40;;;;;;;16.50;10.88;;;;;;;;;;5016414;28;20029;-75
2023/08/20 01:24:12;;;;;;;21.77;9.75;;;;;;;;;;5031857;28;20366;-75
2023/08/20 01:27:01;;;;;;;12.82;10.48;;;;;;;;;;5030955;28;20037;-75
2023/08/20 01:29:27;;;;;;;17.10;10.85;;;;;;;;;;5031131;28;20916;-75
2023/08/20 01:31:55;;;;;;;12.65;10.00;;;;;;;;;;5027666;28;20083;-75
2023/08/20 01:34:22;;;;;;;14.85;10.02;;;;;;;;;;5031383;28;20386;-75
2023/08/20 01:36:48;;;;;;;13.48;10.02;;;;;;;;;;5031421;28;20028;-76
2023/08/20 01:39:14;;;;;;;10.57;9.48;;;;;;;;;;5022816;28;20021;-75
2023/08/20 01:41:40;;;;;;;13.05;9.98;;;;;;;;;;5031292;28;20028;-75
2023/08/20 01:44:07;;;;;;;13.95;11.32;;;;;;;;;;5023321;28;20148;-76
2023/08/20 01:46:33;;;;;;;11.85;10.75;;;;;;;;;;5031261;28;20063;-75
2023/08/20 01:48:59;;;;;;;15.43;11.27;;;;;;;;;;5030627;28;20022;-75
2023/08/20 01:51:25;;;;;;;20.17;15.27;;;;;;;;;;5031344;28;20022;-75
2023/08/20 01:53:51;;;;;;;35.40;21.17;;;;;;;;;;5031290;28;20030;-75
2023/08/20 01:56:17;;;;;;;59.75;36.30;;;;;;;;;;5031505;28;20021;-75
2023/08/20 01:58:43;;;;;;;10.15;9.15;;;;;;;;;;5029295;28;20036;-75
2023/08/20 02:01:09;;;;;;;11.90;10.63;;;;;;;;;;5030046;28;20037;-74
2023/08/20 02:03:38;;;;;;;10.98;9.98;;;;;;;;;;5031340;28;20042;-75
2023/08/20 02:06:04;;;;;;;12.70;10.13;;;;;;;;;;5022099;28;20044;-76
2023/08/20 02:08:30;;;;;;;12.23;11.02;;;;;;;;;;5031105;28;20040;-76
2023/08/20 02:11:03;;;;;;;11.90;10.18;;;;;;;;;;5031692;28;20021;-76
2023/08/20 02:13:29;;;;;;;10.40;9.27;;;;;;;;;;5021915;28;20355;-75
2023/08/20 02:15:59;;;;;;;28.17;20.20;;;;;;;;;;5032146;28;20695;-76
2023/08/20 02:18:25;;;;;;;13.52;11.63;;;;;;;;;;5027961;28;20061;-76
2023/08/20 02:20:50;;;;;;;14.10;10.25;;;;;;;;;;5024455;28;20131;-75
2023/08/20 02:23:16;;;;;;;13.40;11.23;;;;;;;;;;5030854;28;20035;-75
2023/08/20 02:25:44;;;;;;;11.88;10.00;;;;;;;;;;5029407;28;20025;-75
2023/08/20 02:28:10;;;;;;;16.00;11.10;;;;;;;;;;5029678;28;20473;-76
2023/08/20 02:30:46;;;;;;;18.42;14.13;;;;;;;;;;5026855;28;20093;-76
2023/08/20 02:33:12;;;;;;;12.80;10.52;;;;;;;;;;5030813;28;20033;-76
2023/08/20 02:35:39;;;;;;;13.90;11.40;;;;;;;;;;5026552;28;20026;-76
2023/08/20 02:38:05;;;;;;;11.27;10.07;;;;;;;;;;5024997;28;20491;-74
2023/08/20 02:40:31;;;;;;;11.93;10.85;;;;;;;;;;5030217;28;20442;-74
2023/08/20 02:42:57;;;;;;;11.20;10.10;;;;;;;;;;5030611;28;20033;-75
2023/08/20 02:45:23;;;;;;;12.02;10.20;;;;;;;;;;5030464;28;20033;-75
2023/08/20 02:47:50;;;;;;;13.27;10.40;;;;;;;;;;5029631;28;20456;-75
2023/08/20 02:50:16;;;;;;;12.05;10.18;;;;;;;;;;5030210;28;20646;-76
2023/08/20 02:52:42;;;;;;;13.27;11.40;;;;;;;;;;5030491;28;20099;-74
2023/08/20 02:55:09;;;;;;;26.55;18.98;;;;;;;;;;5030555;28;20053;-75
2023/08/20 02:57:35;;;;;;;25.65;19.13;;;;;;;;;;5029539;28;20028;-75
2023/08/20 03:00:01;;;;;;;12.38;10.63;;;;;;;;;;5030769;28;20026;-75
2023/08/20 03:02:27;;;;;;;12.50;11.20;;;;;;;;;;5030166;28;20083;-76
2023/08/20 03:04:53;;;;;;;13.77;9.57;;;;;;;;;;5032121;28;20026;-76
2023/08/20 03:07:19;;;;;;;11.57;10.05;;;;;;;;;;5032622;28;20084;-75
2023/08/20 03:09:45;;;;;;;12.45;9.85;;;;;;;;;;5032342;28;20025;-76
2023/08/20 03:12:11;;;;;;;12.77;10.18;;;;;;;;;;5032395;28;20021;-75
2023/08/20 03:14:37;;;;;;;10.68;9.38;;;;;;;;;;5030083;28;20568;-75
2023/08/20 03:17:03;;;;;;;17.15;9.65;;;;;;;;;;5031041;28;20013;-76
2023/08/20 03:19:34;;;;;;;11.40;10.13;;;;;;;;;;5030867;28;20477;-75
2023/08/20 03:22:00;;;;;;;9.95;8.43;;;;;;;;;;5029905;28;20505;-75
2023/08/20 03:24:26;;;;;;;11.70;9.52;;;;;;;;;;5028244;28;20041;-75
2023/08/20 03:26:52;;;;;;;11.75;9.88;;;;;;;;;;5024492;28;20033;-75
2023/08/20 03:29:18;;;;;;;11.32;10.10;;;;;;;;;;5030227;28;20535;-75
2023/08/20 03:31:44;;;;;;;11.25;9.40;;;;;;;;;;5022084;28;20056;-75
2023/08/20 03:34:10;;;;;;;12.30;9.60;;;;;;;;;;5026744;28;20545;-75
2023/08/20 03:36:36;;;;;;;14.93;9.63;;;;;;;;;;5029945;28;20032;-75
2023/08/20 03:39:03;;;;;;;14.73;9.88;;;;;;;;;;5029463;28;20112;-75
2023/08/20 03:41:29;;;;;;;11.35;10.23;;;;;;;;;;5030238;28;20025;-72
2023/08/20 03:43:55;;;;;;;13.90;10.05;;;;;;;;;;5028433;28;20034;-75
2023/08/20 03:46:21;;;;;;;13.27;9.85;;;;;;;;;;5029721;28;20030;-75
2023/08/20 03:48:47;;;;;;;11.35;8.75;;;;;;;;;;5029141;28;20025;-75
2023/08/20 03:51:13;;;;;;;12.48;8.07;;;;;;;;;;5032816;28;20089;-75
2023/08/20 03:53:39;;;;;;;12.18;7.70;;;;;;;;;;5033406;28;20520;-74
2023/08/20 03:56:05;;;;;;;11.88;7.93;;;;;;;;;;5033541;28;20045;-74
2023/08/20 03:58:31;;;;;;;9.82;7.50;;;;;;;;;;5032631;28;20072;-73
2023/08/20 04:00:57;;;;;;;10.18;7.00;;;;;;;;;;5033656;28;20048;-74
2023/08/20 04:03:23;;;;;;;8.65;7.28;;;;;;;;;;5033195;28;20397;-74
2023/08/20 04:05:50;;;;;;;8.80;7.10;;;;;;;;;;5033171;28;20037;-76
2023/08/20 04:08:16;;;;;;;11.73;7.72;;;;;;;;;;5032346;28;20029;-75
2023/08/20 04:10:45;;;;;;;12.30;6.28;;;;;;;;;;5031830;28;20025;-75
2023/08/20 04:13:11;;;;;;;11.60;7.70;;;;;;;;;;5032962;28;20036;-76
2023/08/20 04:15:37;;;;;;;11.88;7.82;;;;;;;;;;5033159;28;20430;-74
2023/08/20 04:18:03;;;;;;;11.27;7.97;;;;;;;;;;5032302;28;20477;-74
2023/08/20 04:20:29;;;;;;;10.68;7.90;;;;;;;;;;5032816;28;20049;-75
2023/08/20 04:22:55;;;;;;;10.20;7.70;;;;;;;;;;5032893;28;20115;-75
2023/08/20 04:25:21;;;;;;;11.93;7.55;;;;;;;;;;5032782;28;20204;-76
2023/08/20 04:27:47;;;;;;;9.85;7.75;;;;;;;;;;5032005;28;20033;-75
2023/08/20 04:30:13;;;;;;;11.20;7.70;;;;;;;;;;5028815;28;20026;-75
2023/08/20 04:32:39;;;;;;;10.32;7.50;;;;;;;;;;5032747;28;20025;-75
2023/08/20 04:35:06;;;;;;;8.00;6.95;;;;;;;;;;5032588;28;20037;-75
2023/08/20 04:37:31;;;;;;;8.82;8.00;;;;;;;;;;5030528;28;20053;-74
2023/08/20 04:39:57;;;;;;;8.40;7.50;;;;;;;;;;5032554;28;20045;-75
2023/08/20 04:42:24;;;;;;;10.52;7.85;;;;;;;;;;5032576;28;20128;-75
2023/08/20 04:44:50;;;;;;;10.15;8.02;;;;;;;;;;5032393;28;20138;-74
2023/08/20 04:47:16;;;;;;;15.90;7.43;;;;;;;;;;5030354;28;20481;-75
2023/08/20 04:49:42;;;;;;;8.50;7.55;;;;;;;;;;5028078;28;20556;-74
2023/08/20 04:52:08;;;;;;;10.70;7.15;;;;;;;;;;5028710;28;20237;-74
2023/08/20 04:54:34;;;;;;;13.27;8.55;;;;;;;;;;5032093;28;20039;-74
2023/08/20 04:57:00;;;;;;;10.60;7.97;;;;;;;;;;5031987;28;20018;-74
2023/08/20 04:59:26;;;;;;;11.20;7.20;;;;;;;;;;5031548;28;20030;-74
2023/08/20 05:01:52;;;;;;;15.63;7.88;;;;;;;;;;5031246;28;20026;-74
2023/08/20 05:04:18;;;;;;;11.90;8.13;;;;;;;;;;5031865;28;20032;-75
2023/08/20 05:06:44;;;;;;;13.25;7.75;;;;;;;;;;5031910;28;20396;-75
2023/08/20 05:09:10;;;;;;;12.93;7.20;;;;;;;;;;5030744;28;20045;-74
2023/08/20 05:11:37;;;;;;;11.27;7.28;;;;;;;;;;5025239;28;20018;-74
2023/08/20 05:14:03;;;;;;;12.20;7.45;;;;;;;;;;5032533;28;20025;-74
2023/08/20 05:16:29;;;;;;;10.63;7.38;;;;;;;;;;5031841;28;20032;-75
2023/08/20 05:18:55;;;;;;;11.05;7.53;;;;;;;;;;5031534;28;20030;-74
2023/08/20 05:21:21;;;;;;;9.50;7.53;;;;;;;;;;5031929;28;20083;-74
2023/08/20 05:23:47;;;;;;;11.25;7.90;;;;;;;;;;5031656;28;20096;-75
2023/08/20 05:26:13;;;;;;;10.95;7.90;;;;;;;;;;5023564;28;20054;-74
2023/08/20 05:28:39;;;;;;;10.77;7.55;;;;;;;;;;5031119;28;20025;-74
2023/08/20 05:31:05;;;;;;;8.65;6.70;;;;;;;;;;5022615;28;20036;-74
2023/08/20 05:33:32;;;;;;;9.88;7.57;;;;;;;;;;5015841;28;20048;-74
2023/08/20 05:35:58;;;;;;;12.02;7.53;;;;;;;;;;5012825;28;20072;-74
2023/08/20 05:38:24;;;;;;;8.63;7.60;;;;;;;;;;5013104;28;20022;-73
2023/08/20 05:40:50;;;;;;;9.05;7.00;;;;;;;;;;5012903;28;20105;-74
2023/08/20 05:43:16;;;;;;;13.70;7.55;;;;;;;;;;5020884;28;20104;-74
2023/08/20 05:45:42;;;;;;;11.60;6.95;;;;;;;;;;5029426;28;20022;-73
2023/08/20 05:48:08;;;;;;;9.52;6.82;;;;;;;;;;5011380;28;20117;-73
2023/08/20 05:50:34;;;;;;;10.15;6.75;;;;;;;;;;5013779;28;20037;-74
2023/08/20 05:53:01;;;;;;;8.98;7.00;;;;;;;;;;5016292;28;20064;-73
2023/08/20 05:55:27;;;;;;;9.95;6.88;;;;;;;;;;5017871;28;20100;-74
2023/08/20 05:57:53;;;;;;;8.40;6.40;;;;;;;;;;5015301;28;20433;-74
2023/08/20 06:00:19;;;;;;;8.20;6.88;;;;;;;;;;5012241;28;20406;-75
2023/08/20 06:02:45;;;;;;;12.20;7.50;;;;;;;;;;5010540;28;20030;-73
2023/08/20 06:05:11;;;;;;;8.38;6.65;;;;;;;;;;5019576;28;20032;-76
2023/08/20 06:07:37;;;;;;;11.45;6.97;;;;;;;;;;5016919;28;20029;-74
2023/08/20 06:10:03;;;;;;;7.68;6.68;;;;;;;;;;5027315;28;20083;-73
2023/08/20 06:12:29;;;;;;;9.57;6.93;;;;;;;;;;5028696;28;20036;-73
2023/08/20 06:14:55;;;;;;;10.05;7.15;;;;;;;;;;5028855;28;20037;-74
2023/08/20 06:17:21;;;;;;;10.35;7.18;;;;;;;;;;5026982;28;20033;-74
2023/08/20 06:19:47;;;;;;;9.63;6.75;;;;;;;;;;5029109;28;20032;-74
2023/08/20 06:22:13;;;;;;;10.40;6.32;;;;;;;;;;5029035;28;20025;-74
2023/08/20 06:24:39;;;;;;;7.07;6.38;;;;;;;;;;5029183;28;20095;-74
2023/08/20 06:27:05;;;;;;;7.90;6.70;;;;;;;;;;5030707;28;20026;-74
2023/08/20 06:29:31;;;;;;;9.43;6.78;;;;;;;;;;5030863;28;20041;-74
2023/08/20 06:31:58;;;;;;;12.20;6.22;;;;;;;;;;5020149;28;20707;-74
2023/08/20 06:34:24;;;;;;;9.40;6.25;;;;;;;;;;5028878;28;20432;-74
2023/08/20 06:36:50;;;;;;;9.75;6.47;;;;;;;;;;5030736;28;20021;-74
2023/08/20 06:39:16;;;;;;;8.55;5.93;;;;;;;;;;5030217;28;20401;-74
2023/08/20 06:41:42;;;;;;;8.75;6.18;;;;;;;;;;5026349;28;20026;-75
2023/08/20 06:44:09;;;;;;;11.02;6.88;;;;;;;;;;5026714;28;20021;-74
2023/08/20 06:46:35;;;;;;;9.63;6.20;;;;;;;;;;5022138;28;20026;-75
2023/08/20 06:49:01;;;;;;;8.18;6.20;;;;;;;;;;5029685;28;20040;-74
2023/08/20 06:51:28;;;;;;;8.30;6.70;;;;;;;;;;5030349;28;20396;-74
2023/08/20 06:53:55;;;;;;;7.90;6.25;;;;;;;;;;5030081;28;20037;-75
2023/08/20 06:56:21;;;;;;;8.15;7.05;;;;;;;;;;5030308;28;20093;-74
2023/08/20 06:58:47;;;;;;;12.20;6.15;;;;;;;;;;5029633;28;20056;-74
2023/08/20 07:01:13;;;;;;;7.13;5.60;;;;;;;;;;5030361;28;20025;-74
2023/08/20 07:03:40;;;;;;;9.82;6.13;;;;;;;;;;5030303;28;20030;-74
2023/08/20 07:06:06;;;;;;;12.25;5.93;;;;;;;;;;5030467;28;20025;-74
2023/08/20 07:08:32;;;;;;;10.13;5.90;;;;;;;;;;5029266;28;20037;-74
2023/08/20 07:10:58;;;;;;;9.13;5.90;;;;;;;;;;5030157;28;20028;-74
2023/08/20 07:13:24;;;;;;;7.40;5.65;;;;;;;;;;5029981;28;20025;-75
2023/08/20 07:15:51;;;;;;;9.60;5.45;;;;;;;;;;5030193;28;20520;-75
2023/08/20 07:18:17;;;;;;;8.15;6.47;;;;;;;;;;5029481;28;20100;-74
2023/08/20 07:20:43;;;;;;;8.65;5.63;;;;;;;;;;5030121;28;20040;-74
2023/08/20 07:23:10;;;;;;;6.40;5.45;;;;;;;;;;5030331;28;20135;-74
2023/08/20 07:25:40;;;;;;;5.75;5.22;;;;;;;;;;5024497;28;20065;-72
2023/08/20 07:28:09;;;;;;;7.75;4.80;;;;;;;;;;5033047;28;20044;-74
2023/08/20 07:30:35;;;;;;;5.72;5.13;;;;;;;;;;5029532;28;20029;-74
2023/08/20 07:33:02;;;;;;;6.95;4.80;;;;;;;;;;5032646;28;20021;-74
2023/08/20 07:35:28;;;;;;;8.27;4.63;;;;;;;;;;5026264;28;20044;-74
2023/08/20 07:37:54;;;;;;;5.43;4.68;;;;;;;;;;5032835;28;20057;-74
2023/08/20 07:40:20;;;;;;;5.95;5.10;;;;;;;;;;5033846;28;20026;-74
2023/08/20 07:42:46;;;;;;;7.22;5.28;;;;;;;;;;5033253;28;20051;-73
2023/08/20 07:45:13;;;;;;;7.95;5.50;;;;;;;;;;5033648;28;20022;-74
2023/08/20 07:47:39;;;;;;;7.90;5.03;;;;;;;;;;5032667;28;20076;-74
2023/08/20 07:50:06;;;;;;;9.30;4.97;;;;;;;;;;5033507;28;20523;-73
2023/08/20 07:52:35;;;;;;;8.77;4.80;;;;;;;;;;5025490;28;20028;-75
2023/08/20 07:55:01;;;;;;;6.97;5.00;;;;;;;;;;5033385;28;20105;-74
2023/08/20 07:57:27;;;;;;;7.50;4.95;;;;;;;;;;5032689;28;20480;-73
2023/08/20 07:59:53;;;;;;;8.07;5.57;;;;;;;;;;5033429;28;20029;-74
2023/08/20 08:02:19;;;;;;;7.97;5.20;;;;;;;;;;5033931;28;20021;-73
2023/08/20 08:04:45;;;;;;;5.43;4.93;;;;;;;;;;5032527;28;20068;-74
2023/08/20 08:07:12;;;;;;;7.57;5.43;;;;;;;;;;5032719;28;20057;-74
2023/08/20 08:09:38;;;;;;;7.18;5.50;;;;;;;;;;5033155;28;20037;-74
2023/08/20 08:12:05;;;;;;;5.95;5.35;;;;;;;;;;5033467;28;20017;-74
2023/08/20 08:14:31;;;;;;;6.40;5.45;;;;;;;;;;5032003;28;20021;-74
2023/08/20 08:16:57;;;;;;;6.78;5.30;;;;;;;;;;5033142;28;20033;-74
2023/08/20 08:19:23;;;;;;;8.82;5.93;;;;;;;;;;5031608;28;20397;-74
2023/08/20 08:21:49;;;;;;;7.20;5.45;;;;;;;;;;5033090;28;20028;-75
2023/08/20 08:24:16;;;;;;;7.00;5.70;;;;;;;;;;5032756;28;20404;-74
2023/08/20 08:26:42;;;;;;;7.43;5.82;;;;;;;;;;5033271;28;20021;-74
2023/08/20 08:29:09;;;;;;;9.88;5.65;;;;;;;;;;5030945;28;20036;-74
2023/08/20 08:31:35;;;;;;;5.95;5.03;;;;;;;;;;5028067;28;20017;-75
2023/08/20 08:34:03;;;;;;;8.23;6.57;;;;;;;;;;5026324;28;20107;-74
2023/08/20 08:36:29;;;;;;;10.18;5.70;;;;;;;;;;5032295;28;20029;-74
2023/08/20 08:38:55;;;;;;;8.13;4.65;;;;;;;;;;5031491;28;20021;-74
2023/08/20 08:41:26;;;;;;;8.55;5.57;;;;;;;;;;5032444;28;20473;-74
2023/08/20 08:43:52;;;;;;;6.80;5.38;;;;;;;;;;5032231;28;20033;-75
2023/08/20 08:46:18;;;;;;;7.80;5.45;;;;;;;;;;5032279;28;20025;-74
2023/08/20 08:48:45;;;;;;;6.97;4.90;;;;;;;;;;5031704;28;20025;-74
2023/08/20 08:51:12;;;;;;;7.82;5.05;;;;;;;;;;5032529;28;20100;-74
2023/08/20 08:53:38;;;;;;;10.20;5.30;;;;;;;;;;5032359;28;20040;-74
2023/08/20 08:56:07;;;;;;;7.88;5.13;;;;;;;;;;5032291;28;20088;-75
2023/08/20 08:58:33;;;;;;;6.78;4.88;;;;;;;;;;5031563;28;20022;-76
2023/08/20 09:01:00;;;;;;;10.05;6.15;;;;;;;;;;5025772;28;20049;-73
2023/08/20 09:03:26;;;;;;;8.75;5.80;;;;;;;;;;5030460;28;20448;-75
2023/08/20 09:06:02;;;;;;;7.68;5.68;;;;;;;;;;5031918;28;20022;-75
2023/08/20 09:08:29;;;;;;;10.88;6.22;;;;;;;;;;5029892;28;20029;-74
2023/08/20 09:10:56;;;;;;;8.43;5.78;;;;;;;;;;5032049;28;20068;-74
2023/08/20 09:13:23;;;;;;;11.68;7.05;;;;;;;;;;5031869;28;20021;-75
2023/08/20 09:15:51;;;;;;;8.65;6.95;;;;;;;;;;5023672;28;20028;-74
2023/08/20 09:18:17;;;;;;;9.68;7.55;;;;;;;;;;5031222;28;20030;-74
2023/08/20 09:20:43;;;;;;;12.05;10.00;;;;;;;;;;5031650;28;20784;-73
2023/08/20 09:23:15;;;;;;;15.27;9.23;;;;;;;;;;5031684;28;20025;-74
2023/08/20 09:25:45;;;;;;;10.30;8.25;;;;;;;;;;5031784;28;20036;-74
2023/08/20 09:28:11;;;;;;;9.90;7.32;;;;;;;;;;5030961;28;20128;-74
2023/08/20 09:30:39;;;;;;;12.70;8.52;;;;;;;;;;5027256;28;20021;-73
2023/08/20 09:33:08;;;;;;;10.27;7.35;;;;;;;;;;5031901;28;20147;-73
2023/08/20 09:35:34;;;;;;;11.32;7.05;;;;;;;;;;5023699;28;20017;-74
2023/08/20 09:38:01;;;;;;;7.30;6.60;;;;;;;;;;5023006;28;20607;-73
2023/08/20 09:40:28;;;;;;;8.82;5.82;;;;;;;;;;5031569;28;20028;-74
2023/08/20 09:42:57;;;;;;;10.10;6.20;;;;;;;;;;5031628;28;20180;-74
2023/08/20 09:45:28;;;;;;;8.88;6.90;;;;;;;;;;5022435;28;20022;-74
2023/08/20 09:47:58;;;;;;;8.55;6.75;;;;;;;;;;5024874;28;20022;-74
2023/08/20 09:50:25;;;;;;;8.00;7.05;;;;;;;;;;5029512;28;20026;-74
2023/08/20 09:52:56;;;;;;;11.45;7.50;;;;;;;;;;5023057;28;20030;-75
2023/08/20 09:55:22;;;;;;;8.50;7.13;;;;;;;;;;5023265;28;20107;-75
2023/08/20 09:57:48;;;;;;;9.00;6.70;;;;;;;;;;5030643;28;20059;-74
2023/08/20 10:00:15;;;;;;;7.20;6.60;;;;;;;;;;5031080;28;20489;-74
2023/08/20 10:02:43;;;;;;;7.82;6.65;;;;;;;;;;5031459;28;20394;-75
2023/08/20 10:05:10;;;;;;;7.80;6.90;;;;;;;;;;5023158;28;20030;-75
2023/08/20 10:07:37;;;;;;;11.95;9.00;;;;;;;;;;5022474;28;20079;-75
2023/08/20 10:10:04;;;;;;;8.88;6.45;;;;;;;;;;5024483;28;20386;-74
2023/08/20 10:12:31;;;;;;;9.18;7.05;;;;;;;;;;5029840;28;20026;-75
2023/08/20 10:14:57;;;;;;;8.13;7.30;;;;;;;;;;5023817;28;20784;-74
2023/08/20 10:17:24;;;;;;;9.55;6.75;;;;;;;;;;5027591;28;20022;-74
2023/08/20 10:19:51;;;;;;;8.18;6.50;;;;;;;;;;5026076;28;20168;-74
2023/08/20 10:22:17;;;;;;;7.28;6.38;;;;;;;;;;5026803;28;20034;-74
2023/08/20 10:24:50;;;;;;;7.60;6.78;;;;;;;;;;5030651;28;20496;-74
2023/08/20 10:27:36;;;;;;;9.55;6.57;;;;;;;;;;5022337;28;20030;-73
2023/08/20 10:30:03;;;;;;;9.68;7.90;;;;;;;;;;5027759;28;20033;-74
2023/08/20 10:32:48;;;;;;;9.77;8.20;;;;;;;;;;5029420;28;20504;-74
2023/08/20 10:35:17;;;;;;;10.57;8.00;;;;;;;;;;5030416;28;20025;-75
2023/08/20 10:38:05;;;;;;;10.52;7.20;;;;;;;;;;5018434;28;20018;-74
2023/08/20 10:40:47;;;;;;;12.25;8.70;;;;;;;;;;5029683;28;20056;-75
2023/08/20 10:43:32;;;;;;;9.57;7.15;;;;;;;;;;5030873;28;20033;-75
2023/08/20 10:46:17;;;;;;;9.57;7.40;;;;;;;;;;5022438;28;20032;-74
2023/08/20 10:48:44;;;;;;;10.13;7.63;;;;;;;;;;5021656;28;20017;-74
2023/08/20 10:51:11;;;;;;;11.95;7.57;;;;;;;;;;5021602;28;20400;-75
2023/08/20 10:53:37;;;;;;;10.48;8.38;;;;;;;;;;5020538;28;20041;-75
2023/08/20 10:56:09;;;;;;;8.27;7.43;;;;;;;;;;5027084;28;20026;-75
2023/08/20 10:58:35;;;;;;;8.98;7.22;;;;;;;;;;5019707;28;20073;-75
2023/08/20 11:01:21;;;;;;;8.52;6.93;;;;;;;;;;5029200;28;20501;-74
2023/08/20 11:03:48;;;;;;;9.65;6.68;;;;;;;;;;5034602;28;20116;-74
2023/08/20 11:06:14;;;;;;;8.57;6.10;;;;;;;;;;5034392;28;20029;-76
2023/08/20 11:08:41;;;;;;;9.40;6.75;;;;;;;;;;5026212;28;20029;-74
2023/08/20 11:11:08;;;;;;;8.57;6.43;;;;;;;;;;5034595;28;20575;-74
2023/08/20 11:13:34;;;;;;;6.95;6.10;;;;;;;;;;5034385;28;20071;-75
2023/08/20 11:16:02;;;;;;;7.20;6.50;;;;;;;;;;5034771;28;20027;-73
2023/08/20 11:18:28;;;;;;;6.85;5.88;;;;;;;;;;5033908;28;20481;-75
2023/08/20 11:20:55;;;;;;;7.32;6.28;;;;;;;;;;5034441;28;20022;-74
2023/08/20 11:23:21;;;;;;;5.97;5.22;;;;;;;;;;5025845;28;20030;-74
2023/08/20 11:25:47;;;;;;;11.10;5.97;;;;;;;;;;5025913;28;20030;-74
2023/08/20 11:28:13;;;;;;;5.03;4.53;;;;;;;;;;5025790;28;20052;-75
2023/08/20 11:30:39;;;;;;;7.72;5.25;;;;;;;;;;5030263;28;20029;-75
2023/08/20 11:33:06;;;;;;;6.57;5.43;;;;;;;;;;5034241;28;20042;-75
2023/08/20 11:35:33;;;;;;;5.80;5.05;;;;;;;;;;5022034;28;20104;-75
2023/08/20 11:37:59;;;;;;;7.18;4.80;;;;;;;;;;5029042;28;20025;-75
2023/08/20 11:40:25;;;;;;;7.43;5.25;;;;;;;;;;5026432;28;20420;-75
2023/08/20 11:42:51;;;;;;;9.55;4.93;;;;;;;;;;5033745;28;20492;-75
2023/08/20 11:45:17;;;;;;;7.05;6.13;;;;;;;;;;5018983;28;20021;-74
2023/08/20 11:47:43;;;;;;;9.85;7.50;;;;;;;;;;5017420;28;20018;-74
2023/08/20 11:50:10;;;;;;;8.95;6.05;;;;;;;;;;5016996;28;20018;-74
2023/08/20 11:52:39;;;;;;;7.78;6.40;;;;;;;;;;5026237;28;20500;-74
2023/08/20 11:55:06;;;;;;;8.23;6.53;;;;;;;;;;5020044;28;20057;-74
2023/08/20 11:57:32;;;;;;;7.10;6.07;;;;;;;;;;5022209;28;20026;-74
2023/08/20 12:00:13;;;;;;;17.00;6.70;;;;;;;;;;5028010;28;20041;-74
2023/08/20 12:02:41;;;;;;;6.32;5.68;;;;;;;;;;5023708;28;20147;-74
2023/08/20 12:05:07;;;;;;;8.52;6.10;;;;;;;;;;5021751;28;20035;-76
2023/08/20 12:07:33;;;;;;;6.78;5.63;;;;;;;;;;5024084;28;20087;-76
2023/08/20 12:10:19;;;;;;;9.45;5.45;;;;;;;;;;5024817;28;20065;-75
2023/08/20 12:12:45;;;;;;;7.72;4.68;;;;;;;;;;5017699;28;20389;-75
2023/08/20 12:15:11;;;;;;;11.70;6.50;;;;;;;;;;5019275;28;20014;-75
2023/08/20 12:17:37;;;;;;;5.05;4.57;;;;;;;;;;5025796;28;20017;-74
2023/08/20 12:20:12;;;;;;;8.15;5.40;;;;;;;;;;5033065;28;20041;-74
2023/08/20 12:22:38;;;;;;;7.32;4.25;;;;;;;;;;5019064;28;20037;-74
2023/08/20 12:25:04;;;;;;;6.85;4.50;;;;;;;;;;5019714;28;20037;-75
2023/08/20 12:27:30;;;;;;;6.05;4.63;;;;;;;;;;5022734;28;20191;-75
2023/08/20 12:29:56;;;;;;;7.75;4.93;;;;;;;;;;5019612;28;20109;-75
2023/08/20 12:32:22;;;;;;;9.30;4.60;;;;;;;;;;5017039;28;20045;-75
2023/08/20 12:34:48;;;;;;;6.32;4.80;;;;;;;;;;5003428;28;20030;-77
2023/08/20 12:37:14;;;;;;;7.75;4.97;;;;;;;;;;5015167;28;20026;-76
2023/08/20 12:39:40;;;;;;;6.30;4.43;;;;;;;;;;5015748;28;20033;-76
2023/08/20 12:42:08;;;;;;;8.40;4.57;;;;;;;;;;5023085;28;20721;-76
2023/08/20 12:44:34;;;;;;;7.72;5.82;;;;;;;;;;5011982;28;20532;-77
2023/08/20 12:47:00;;;;;;;9.30;5.47;;;;;;;;;;5013354;28;20105;-76
2023/08/20 12:49:26;;;;;;;8.13;5.80;;;;;;;;;;5026284;28;20036;-76
2023/08/20 12:51:52;;;;;;;7.50;4.88;;;;;;;;;;5020898;28;20018;-76
2023/08/20 12:54:18;;;;;;;7.97;4.75;;;;;;;;;;5029814;28;20409;-77
2023/08/20 12:56:44;;;;;;;7.45;4.57;;;;;;;;;;5028680;28;20405;-75
2023/08/20 12:59:10;;;;;;;6.05;4.60;;;;;;;;;;5026278;28;20048;-73
2023/08/20 13:01:36;;;;;;;5.72;4.72;;;;;;;;;;5032225;28;20037;-73
2023/08/20 13:04:03;;;;;;;6.80;4.40;;;;;;;;;;5030822;28;20152;-73
2023/08/20 13:06:29;;;;;;;5.60;4.28;;;;;;;;;;5032272;28;20036;-73
2023/08/20 13:08:56;;;;;;;4.82;4.40;;;;;;;;;;5032165;28;20552;-76
2023/08/20 13:11:22;;;;;;;5.38;4.60;;;;;;;;;;5032621;28;20060;-76
2023/08/20 13:13:50;;;;;;;7.85;4.85;;;;;;;;;;5024166;28;20100;-78
2023/08/20 13:16:19;;;;;;;7.43;4.95;;;;;;;;;;5032244;28;20032;-76
2023/08/20 13:18:45;;;;;;;6.93;5.35;;;;;;;;;;5027875;28;20113;-79
2023/08/20 13:21:11;;;;;;;7.28;5.40;;;;;;;;;;5020897;28;20034;-77
2023/08/20 13:23:37;;;;;;;11.85;4.75;;;;;;;;;;5032293;28;20036;-75
2023/08/20 13:26:03;;;;;;;6.20;4.68;;;;;;;;;;5034556;28;20120;-75
2023/08/20 13:28:29;;;;;;;9.63;5.10;;;;;;;;;;5036287;28;20036;-76
2023/08/20 13:30:55;;;;;;;7.57;4.15;;;;;;;;;;5028664;28;20017;-77
2023/08/20 13:38:32;;;;;;;14.90;12.57;;;;;;;;;;5039890;28;20069;-72
2023/08/20 13:40:58;;;;;;;8.10;5.20;;;;;;;;;;5030732;28;20089;-71
2023/08/20 13:46:24;;;;;;;9.13;7.10;;;;;;;;;;5048135;28;20040;-76
2023/08/20 13:49:15;;;;;;;6.80;4.55;;;;;;;;;;5027411;28;20036;-74
2023/08/20 13:51:41;;;;;;;6.07;5.00;;;;;;;;;;5032957;28;20075;-76
2023/08/20 13:57:29;;;;;;;5.85;4.30;;;;;;;;;;5008041;28;20026;-76
2023/08/20 13:59:58;;;;;;;8.77;4.85;;;;;;;;;;5012443;28;20108;-76
2023/08/20 14:05:19;;;;;;;20.77;16.77;;;;;;;;;;5003585;28;20034;-74
2023/08/20 14:07:45;;;;;;;6.25;5.55;;;;;;;;;;5007341;28;20021;-74
2023/08/20 14:10:21;;;;;;;5.30;4.78;;;;;;;;;;5012944;28;20073;-74
2023/08/20 14:12:50;;;;;;;7.13;5.50;;;;;;;;;;5044065;28;20036;-74
2023/08/20 14:15:24;;;;;;;8.77;5.75;;;;;;;;;;5034260;28;20025;-74
2023/08/20 14:17:50;;;;;;;6.68;5.22;;;;;;;;;;5030655;28;20501;-75
2023/08/20 14:20:16;;;;;;;7.93;5.10;;;;;;;;;;5039239;28;20028;-76
2023/08/20 14:22:42;;;;;;;12.45;5.40;;;;;;;;;;5030959;28;20021;-75
2023/08/20 14:25:08;;;;;;;6.50;5.90;;;;;;;;;;5038272;28;20032;-75
2023/08/20 14:27:34;;;;;;;7.85;5.65;;;;;;;;;;5033469;28;20040;-75
2023/08/20 14:30:00;;;;;;;15.60;7.88;;;;;;;;;;5040290;28;20033;-74
2023/08/20 14:32:26;;;;;;;6.38;5.72;;;;;;;;;;5030879;28;20029;-75
2023/08/20 14:34:52;;;;;;;16.08;6.50;;;;;;;;;;5030635;28;20032;-75
2023/08/20 14:37:18;;;;;;;9.15;5.78;;;;;;;;;;5030168;28;20025;-75
2023/08/20 14:39:44;;;;;;;11.98;6.25;;;;;;;;;;5039017;28;20519;-74
2023/08/20 14:42:10;;;;;;;8.70;5.95;;;;;;;;;;5013675;28;20278;-73
2023/08/20 14:44:36;;;;;;;7.03;6.18;;;;;;;;;;5042041;28;20107;-74
2023/08/20 14:47:04;;;;;;;7.35;6.05;;;;;;;;;;5036064;28;20075;-73